Time;durP1;ratioP1;P1;durP2;ratioP2;P2;SDS_P1;SDS_P2;PMS_P1;PMS_P2;Temp;Humidity;BMP_temperature;BMP_pressure;BME280_temperature;BME280_humidity;BME280_pressure;Samples;Min_cycle;Max_cycle;Signal;HPM_P1;HPM_P2
2022/11/29 00:00:46;;;;;;;0.00;0.00;;;;;;;8.16;74.76;101062.72;7363408;19;20030;-55
2022/11/29 00:03:11;;;;;;;0.00;0.00;;;;;;;8.12;74.52;101065.34;7361600;19;20070;-57
2022/11/29 00:05:37;;;;;;;0.00;0.00;;;;;;;8.18;74.62;101073.13;7360975;19;20095;-57
2022/11/29 00:08:02;;;;;;;0.00;0.00;;;;;;;8.10;74.45;101056.69;7361897;19;20017;-58
2022/11/29 00:10:27;;;;;;;0.00;0.00;;;;;;;8.25;74.87;101073.03;7360957;19;20093;-56
2022/11/29 00:12:53;;;;;;;0.05;0.05;;;;;;;8.28;75.03;101072.19;7362645;19;20010;-58
2022/11/29 00:15:18;;;;;;;0.00;0.00;;;;;;;8.30;74.63;101067.81;7364815;19;20035;-56
2022/11/29 00:17:44;;;;;;;0.00;0.00;;;;;;;8.34;74.61;101077.31;7365323;19;20074;-58
2022/11/29 00:20:10;;;;;;;0.10;0.10;;;;;;;8.33;74.95;101067.81;7364636;19;20025;-55
2022/11/29 00:22:36;;;;;;;0.10;0.10;;;;;;;8.38;74.78;101079.06;7365415;19;20951;-56
2022/11/29 00:25:02;;;;;;;0.00;0.00;;;;;;;8.37;74.24;101077.34;7364254;19;20011;-58
2022/11/29 00:27:27;;;;;;;0.00;0.00;;;;;;;8.35;74.87;101063.44;7364437;19;20017;-58
2022/11/29 00:29:53;;;;;;;0.00;0.00;;;;;;;8.38;74.89;101066.06;7364848;19;20011;-56
2022/11/29 00:32:18;;;;;;;0.10;0.10;;;;;;;8.45;74.35;101080.75;7365003;19;20006;-58
2022/11/29 00:34:44;;;;;;;0.10;0.10;;;;;;;8.46;74.60;101082.47;7363120;19;20002;-57
2022/11/29 00:37:09;;;;;;;0.00;0.00;;;;;;;8.48;74.20;101091.13;7364240;19;20073;-57
2022/11/29 00:39:35;;;;;;;0.10;0.10;;;;;;;8.47;74.62;101086.81;7365221;19;20357;-57
2022/11/29 00:42:00;;;;;;;0.00;0.00;;;;;;;8.51;74.30;101091.09;7364619;19;20872;-57
2022/11/29 00:44:26;;;;;;;0.00;0.00;;;;;;;8.51;74.37;101101.50;7365354;19;20006;-58
2022/11/29 00:46:51;;;;;;;0.00;0.00;;;;;;;8.56;74.30;101109.28;7364455;19;20006;-58
2022/11/29 00:49:16;;;;;;;0.00;0.00;;;;;;;8.57;74.54;101106.69;7364975;19;20048;-56
2022/11/29 00:51:42;;;;;;;0.00;0.00;;;;;;;8.58;74.02;101105.81;7361282;19;20014;-58
2022/11/29 00:54:07;;;;;;;0.00;0.00;;;;;;;8.62;74.13;101113.56;7364078;19;20049;-58
2022/11/29 00:56:33;;;;;;;0.00;0.00;;;;;;;8.63;74.74;101099.72;7362638;19;20014;-58
2022/11/29 00:58:58;;;;;;;0.00;0.00;;;;;;;8.64;74.50;101096.22;7364757;19;20026;-58
2022/11/29 01:01:24;;;;;;;0.00;0.00;;;;;;;8.67;74.59;101102.28;7365057;19;20014;-58
2022/11/29 01:03:49;;;;;;;0.00;0.00;;;;;;;8.73;74.38;101106.56;7362868;19;20027;-58
2022/11/29 01:06:16;;;;;;;0.03;0.03;;;;;;;8.77;74.41;101100.47;7363837;19;20026;-56
2022/11/29 01:08:44;;;;;;;0.00;0.00;;;;;;;8.75;74.28;101099.59;7364331;19;20062;-56
2022/11/29 01:11:18;;;;;;;0.00;0.00;;;;;;;8.83;74.24;101092.59;7364435;19;20010;-58
2022/11/29 01:13:44;;;;;;;0.00;0.00;;;;;;;8.80;74.27;101082.19;7363394;19;20017;-56
2022/11/29 01:16:10;;;;;;;0.00;0.00;;;;;;;8.84;74.30;101081.28;7363522;19;21002;-58
2022/11/29 01:18:36;;;;;;;0.03;0.03;;;;;;;8.88;74.17;101075.16;7364130;19;20777;-58
2022/11/29 01:21:16;;;;;;;0.00;0.00;;;;;;;8.90;74.03;101062.97;7363427;19;20101;-58
2022/11/29 01:23:43;;;;;;;0.00;0.00;;;;;;;8.92;74.47;101075.97;7364456;19;20558;-58
2022/11/29 01:26:17;;;;;;;0.00;0.00;;;;;;;8.96;74.32;101083.75;7362167;19;20033;-58
2022/11/29 01:28:46;;;;;;;0.10;0.10;;;;;;;8.66;74.54;101037.19;7363437;19;20053;-55
2022/11/29 01:31:17;;;;;;;0.00;0.00;;;;;;;8.97;74.15;101088.09;7361542;19;20086;-58
2022/11/29 01:33:42;;;;;;;0.05;0.05;;;;;;;9.00;74.10;101089.81;7363581;19;20025;-56
2022/11/29 01:36:08;;;;;;;0.00;0.00;;;;;;;9.01;73.78;101092.38;7360328;19;20010;-57
2022/11/29 01:38:35;;;;;;;0.00;0.00;;;;;;;9.01;74.42;101097.59;7363933;19;20031;-58
2022/11/29 01:41:05;;;;;;;0.00;0.00;;;;;;;9.04;74.35;101099.31;7364858;19;20034;-57
2022/11/29 01:43:30;;;;;;;0.00;0.00;;;;;;;9.02;74.50;101088.03;7362717;19;20749;-58
2022/11/29 01:45:56;;;;;;;0.00;0.00;;;;;;;9.03;74.35;101088.03;7364458;19;25593;-56
2022/11/29 01:48:25;;;;;;;0.00;0.00;;;;;;;8.93;74.12;101069.91;7362911;19;20006;-58
2022/11/29 01:50:53;;;;;;;0.00;0.00;;;;;;;9.01;74.21;101081.09;7362426;19;20014;-57
2022/11/29 01:53:19;;;;;;;0.03;0.03;;;;;;;9.03;74.40;101082.81;7360936;19;20023;-57
2022/11/29 01:55:50;;;;;;;0.08;0.08;;;;;;;9.06;73.91;101089.72;7361614;19;20038;-58
2022/11/29 01:58:16;;;;;;;0.00;0.00;;;;;;;8.53;73.99;101006.06;7363071;19;20457;-58
2022/11/29 02:00:42;;;;;;;0.00;0.00;;;;;;;8.99;74.16;101078.53;7364531;19;21811;-57
2022/11/29 02:03:13;;;;;;;0.10;0.10;;;;;;;9.00;73.80;101084.59;7361588;19;20106;-57
2022/11/29 02:05:41;;;;;;;0.00;0.00;;;;;;;8.99;73.88;101086.34;7359206;19;20022;-58
2022/11/29 02:08:09;;;;;;;0.00;0.00;;;;;;;8.97;74.13;101087.22;7358308;19;20081;-58
2022/11/29 02:10:52;;;;;;;;;;;;;;;9.03;73.38;101090.66;7363531;19;20018;-58
2022/11/29 02:13:32;;;;;;;0.10;0.10;;;;;;;8.99;74.03;101099.38;7361137;19;19919;-58
2022/11/29 02:16:18;;;;;;;0.10;0.10;;;;;;;8.98;73.61;101102.84;7361493;19;20027;-56
2022/11/29 02:18:43;;;;;;;0.00;0.00;;;;;;;8.95;74.15;101118.50;7359661;19;20010;-58
2022/11/29 02:21:30;;;;;;;0.08;0.08;;;;;;;8.96;74.06;101125.44;7362258;19;22512;-58
2022/11/29 02:24:14;;;;;;;0.00;0.00;;;;;;;8.95;73.79;101133.25;7258225;19;2004431;-57
2022/11/29 02:26:52;;;;;;;0.00;0.00;;;;;;;8.92;74.32;101128.97;7362354;19;20018;-57
2022/11/29 02:29:55;;;;;;;0.08;0.08;;;;;;;8.93;73.71;101135.88;7359851;19;20087;-58
2022/11/29 02:32:23;;;;;;;0.00;0.00;;;;;;;8.88;74.24;101132.47;7259291;19;2004245;-58
2022/11/29 02:35:06;;;;;;;0.00;0.00;;;;;;;8.89;74.33;101141.13;7361449;19;20006;-58
2022/11/29 02:38:01;;;;;;;0.00;0.00;;;;;;;8.87;74.26;101141.16;7360549;19;20010;-57
2022/11/29 02:40:52;;;;;;;0.00;0.00;;;;;;;8.87;74.05;101135.94;7259907;19;2005577;-57
2022/11/29 02:43:23;;;;;;;0.10;0.10;;;;;;;8.83;74.23;101134.25;7257120;19;2004358;-57
2022/11/29 02:46:03;;;;;;;0.10;0.10;;;;;;;8.84;73.97;101147.25;7363502;19;20032;-56
2022/11/29 02:48:58;;;;;;;0.00;0.00;;;;;;;8.86;73.97;101144.63;7360117;19;20011;-58
2022/11/29 02:51:39;;;;;;;0.00;0.00;;;;;;;8.83;74.54;101139.47;7260416;19;2004289;-59
2022/11/29 02:54:22;;;;;;;0.10;0.10;;;;;;;8.84;74.19;101136.81;7362398;19;20010;-58
2022/11/29 02:57:01;;;;;;;0.00;0.00;;;;;;;8.82;74.37;101135.13;7360274;19;20022;-57
2022/11/29 02:59:44;;;;;;;0.10;0.10;;;;;;;8.83;74.67;101144.66;7353110;19;20642;-58
2022/11/29 03:02:18;;;;;;;0.03;0.03;;;;;;;8.84;74.61;101146.38;7356050;19;20014;-58
2022/11/29 03:05:02;;;;;;;0.10;0.10;;;;;;;8.86;74.52;101151.56;7361042;19;20015;-57
2022/11/29 03:07:46;;;;;;;0.00;0.00;;;;;;;8.83;74.63;101155.09;7359307;19;20010;-58
2022/11/29 03:10:32;;;;;;;0.00;0.00;;;;;;;8.86;74.20;101159.38;7361133;19;20117;-57
2022/11/29 03:13:02;;;;;;;0.10;0.10;;;;;;;8.80;74.29;101161.16;7355849;19;20026;-58
2022/11/29 03:15:37;;;;;;;0.10;0.10;;;;;;;8.84;74.27;101162.00;7355606;19;20011;-58
2022/11/29 03:18:05;;;;;;;0.10;0.10;;;;;;;8.81;74.39;101157.69;7361151;19;20716;-58
2022/11/29 03:21:09;;;;;;;0.00;0.00;;;;;;;8.87;73.96;101151.56;7363247;19;20013;-58
2022/11/29 03:23:51;;;;;;;0.10;0.10;;;;;;;8.87;74.03;101155.91;7262847;19;2005425;-58
2022/11/29 03:26:23;;;;;;;0.10;0.10;;;;;;;8.83;74.33;101162.88;7367224;19;20039;-58
2022/11/29 03:29:06;;;;;;;0.00;0.00;;;;;;;8.83;74.09;101160.28;7364070;19;20014;-57
2022/11/29 03:31:37;;;;;;;0.08;0.08;;;;;;;8.78;73.99;101162.94;7363483;19;20010;-57
2022/11/29 03:34:49;;;;;;;0.00;0.00;;;;;;;8.79;73.85;101164.66;7362151;19;20022;-57
2022/11/29 03:37:19;;;;;;;0.00;0.00;;;;;;;8.73;74.27;101163.84;7262183;19;2004201;-58
2022/11/29 03:40:00;;;;;;;0.10;0.10;;;;;;;8.71;74.20;101165.56;7363688;19;20010;-58
2022/11/29 03:42:36;;;;;;;0.00;0.00;;;;;;;8.68;74.41;101170.81;7366559;19;20019;-57
2022/11/29 03:45:13;;;;;;;0.00;0.00;;;;;;;8.53;73.81;101151.81;7367780;19;20360;-58
2022/11/29 03:47:51;;;;;;;0.00;0.00;;;;;;;8.61;74.18;101164.78;7365619;19;20007;-58
2022/11/29 03:50:22;;;;;;;0.10;0.10;;;;;;;8.60;74.10;101167.41;7365337;19;20040;-58
2022/11/29 03:52:53;;;;;;;0.00;0.00;;;;;;;8.54;74.15;101158.75;7367500;19;20011;-58
2022/11/29 03:55:54;;;;;;;0.00;0.00;;;;;;;8.55;73.81;101160.47;7364789;19;20762;-57
2022/11/29 03:58:35;;;;;;;0.00;0.00;;;;;;;8.52;74.44;101163.13;7263405;19;2004206;-56
2022/11/29 04:01:34;;;;;;;0.03;0.03;;;;;;;8.52;74.15;101176.13;7365448;19;20784;-56
2022/11/29 04:04:25;;;;;;;0.08;0.08;;;;;;;8.49;74.57;101176.16;7255342;19;2004311;-58
2022/11/29 04:07:05;;;;;;;0.00;0.00;;;;;;;8.50;74.61;101177.88;7259149;19;2004460;-57
2022/11/29 04:09:41;;;;;;;0.00;0.00;;;;;;;8.49;74.54;101176.16;7360417;19;20109;-58
2022/11/29 04:12:33;;;;;;;0.00;0.00;;;;;;;8.47;74.98;101183.13;7361805;19;20118;-57
2022/11/29 04:15:05;;;;;;;0.00;0.00;;;;;;;8.48;74.63;101186.56;7258534;19;2004362;-58
2022/11/29 04:17:45;;;;;;;0.00;0.00;;;;;;;8.41;74.35;101183.13;7359662;19;20034;-58
2022/11/29 04:20:44;;;;;;;0.00;0.00;;;;;;;8.43;74.54;101190.94;7352348;19;20006;-58
2022/11/29 04:23:15;;;;;;;0.00;0.00;;;;;;;8.42;75.09;101215.25;7257551;19;2005360;-57
2022/11/29 04:26:04;;;;;;;0.00;0.00;;;;;;;8.23;74.41;101180.63;7361269;19;20007;-58
2022/11/29 04:28:47;;;;;;;0.00;0.00;;;;;;;8.39;74.73;101215.25;7359880;19;20011;-57
2022/11/29 04:31:31;;;;;;;0.00;0.00;;;;;;;8.39;74.61;101215.25;7356743;19;20108;-57
2022/11/29 04:34:33;;;;;;;0.00;0.00;;;;;;;8.38;74.57;101217.00;7361466;19;20032;-58
2022/11/29 04:37:12;;;;;;;0.00;0.00;;;;;;;8.32;74.84;101222.19;7256667;19;2004891;-56
2022/11/29 04:39:44;;;;;;;0.00;0.00;;;;;;;8.31;74.90;101212.63;7360646;19;20027;-58
2022/11/29 04:42:33;;;;;;;0.00;0.00;;;;;;;8.29;74.74;101217.00;7360485;19;20024;-58
2022/11/29 04:45:23;;;;;;;0.00;0.00;;;;;;;8.27;74.57;101221.34;7360526;19;20011;-57
2022/11/29 04:48:03;;;;;;;0.00;0.00;;;;;;;8.21;74.89;101223.97;7356227;19;20010;-56
2022/11/29 04:50:42;;;;;;;0.10;0.10;;;;;;;7.82;74.43;101170.41;7360067;19;20029;-58
2022/11/29 04:53:34;;;;;;;0.00;0.00;;;;;;;8.19;74.87;101233.53;7362537;19;20007;-58
2022/11/29 04:56:12;;;;;;;0.10;0.10;;;;;;;8.18;74.85;101237.00;7259257;19;2004294;-57
2022/11/29 04:59:29;;;;;;;0.10;0.10;;;;;;;8.18;75.02;101244.81;7359494;19;20007;-58
2022/11/29 05:02:04;;;;;;;0.00;0.00;;;;;;;8.15;75.41;101247.41;7256496;19;2004172;-57
2022/11/29 05:04:49;;;;;;;0.00;0.00;;;;;;;7.81;75.12;101185.16;7359991;19;20014;-56
2022/11/29 05:07:26;;;;;;;0.10;0.10;;;;;;;8.17;75.03;101249.16;7360473;19;20557;-57
2022/11/29 05:10:16;;;;;;;0.00;0.00;;;;;;;8.17;75.21;101235.28;7359409;19;20042;-59
2022/11/29 05:13:03;;;;;;;0.10;0.10;;;;;;;8.17;75.81;101240.47;7361725;19;20122;-57
2022/11/29 05:15:51;;;;;;;0.00;0.00;;;;;;;8.19;75.34;101241.34;7360466;19;20039;-57
2022/11/29 05:18:40;;;;;;;0.00;0.00;;;;;;;8.16;75.39;101228.31;7358675;19;20496;-58
2022/11/29 05:21:18;;;;;;;0.10;0.10;;;;;;;8.19;75.43;101233.53;7356978;19;20010;-58
2022/11/29 05:24:08;;;;;;;0.00;0.00;;;;;;;8.22;75.60;101242.19;7358227;19;20045;-58
2022/11/29 05:26:51;;;;;;;0.00;0.00;;;;;;;8.20;75.04;101240.44;7360798;19;20734;-55
2022/11/29 05:29:40;;;;;;;0.00;0.00;;;;;;;8.26;75.30;101256.03;7359456;19;20010;-57
2022/11/29 05:32:39;;;;;;;0.00;0.00;;;;;;;8.18;75.08;101255.22;7354617;19;20020;-57
2022/11/29 05:35:16;;;;;;;0.10;0.10;;;;;;;8.26;75.63;101267.34;7257058;19;2004139;-57
2022/11/29 05:37:49;;;;;;;0.00;0.00;;;;;;;8.27;75.60;101268.19;7359835;19;20014;-58
2022/11/29 05:40:39;;;;;;;0.00;0.00;;;;;;;8.31;75.46;101280.28;7359271;19;20399;-58
2022/11/29 05:43:28;;;;;;;0.00;0.00;;;;;;;8.34;75.28;101275.09;7356494;19;20007;-57
2022/11/29 05:46:20;;;;;;;0.00;0.00;;;;;;;8.35;75.29;101287.22;7359537;19;20014;-59
2022/11/29 05:48:57;;;;;;;0.05;0.05;;;;;;;8.37;75.23;101295.09;7258103;19;2004300;-56
2022/11/29 05:51:38;;;;;;;0.03;0.03;;;;;;;8.37;75.42;101293.34;7360287;19;20043;-57
2022/11/29 05:54:21;;;;;;;0.00;0.00;;;;;;;8.41;74.84;101292.44;7360411;19;20010;-58
2022/11/29 05:56:54;;;;;;;0.10;0.10;;;;;;;8.40;75.07;101301.13;7358289;19;20014;-57
2022/11/29 05:59:25;;;;;;;0.00;0.00;;;;;;;8.38;74.93;101295.06;7357876;19;20078;-56
2022/11/29 06:02:22;;;;;;;0.10;0.10;;;;;;;8.44;74.92;101302.84;7355391;19;20039;-57
2022/11/29 06:05:10;;;;;;;0.00;0.00;;;;;;;8.46;74.93;101301.06;7255137;19;2004327;-58
2022/11/29 06:07:51;;;;;;;0.00;0.00;;;;;;;8.48;74.97;101293.28;7357309;19;20010;-56
2022/11/29 06:10:20;;;;;;;0.00;0.00;;;;;;;8.47;75.37;101289.81;7357579;19;20030;-58
2022/11/29 06:12:59;;;;;;;0.00;0.00;;;;;;;8.44;75.15;101281.16;7358980;19;20091;-56
2022/11/29 06:15:45;;;;;;;0.00;0.00;;;;;;;8.52;75.17;101285.47;7356635;19;20010;-58
2022/11/29 06:18:32;;;;;;;0.00;0.00;;;;;;;8.53;75.30;101287.19;7356265;19;20112;-57
2022/11/29 06:20:58;;;;;;;0.00;0.00;;;;;;;8.51;75.43;101296.72;7358256;19;20811;-58
2022/11/29 06:23:56;;;;;;;0.00;0.00;;;;;;;8.56;74.80;101318.38;7356518;19;20952;-57
2022/11/29 06:27:06;;;;;;;0.00;0.00;;;;;;;8.58;74.64;101315.81;7257098;19;2004325;-58
2022/11/29 06:29:40;;;;;;;0.00;0.00;;;;;;;8.56;74.94;101321.00;7251106;19;2004240;-58
2022/11/29 06:32:33;;;;;;;0.00;0.00;;;;;;;8.59;74.76;101312.31;7349803;19;20010;-57
2022/11/29 06:35:45;;;;;;;0.00;0.00;;;;;;;8.58;75.08;101305.38;7255826;19;2004367;-58
2022/11/29 06:38:24;;;;;;;0.00;0.00;;;;;;;8.60;74.68;101315.78;7253983;19;2004435;-57
2022/11/29 06:40:50;;;;;;;0.03;0.03;;;;;;;8.56;75.28;101318.38;7355124;19;20043;-58
2022/11/29 06:43:16;;;;;;;0.05;0.05;;;;;;;8.56;75.35;101322.72;7357547;19;20935;-58
2022/11/29 06:45:50;;;;;;;0.00;0.00;;;;;;;8.55;75.26;101316.66;7357817;19;20866;-58
2022/11/29 06:48:25;;;;;;;0.00;0.00;;;;;;;8.60;75.05;101328.81;7355987;19;20010;-58
2022/11/29 06:51:27;;;;;;;0.10;0.10;;;;;;;8.62;75.15;101327.94;7357666;19;20514;-58
2022/11/29 06:54:12;;;;;;;0.00;0.00;;;;;;;8.64;75.13;101330.53;7254989;19;2004263;-58
2022/11/29 06:56:49;;;;;;;0.10;0.10;;;;;;;8.65;75.16;101321.84;7362162;19;20717;-56
2022/11/29 06:59:38;;;;;;;0.00;0.00;;;;;;;8.67;75.00;101304.44;7356392;19;20018;-58
2022/11/29 07:02:35;;;;;;;0.00;0.00;;;;;;;8.31;74.63;101249.06;7264425;19;2004564;-58
2022/11/29 07:05:28;;;;;;;0.00;0.00;;;;;;;8.56;74.74;101297.56;7265326;19;2004577;-58
2022/11/29 07:07:57;;;;;;;0.00;0.00;;;;;;;8.61;74.96;101304.50;7263406;19;2004432;-57
2022/11/29 07:10:23;;;;;;;0.10;0.10;;;;;;;8.66;75.32;101323.56;7366951;19;20014;-58
2022/11/29 07:12:50;;;;;;;0.00;0.00;;;;;;;8.62;75.31;101325.34;7367690;19;20089;-58
2022/11/29 07:15:18;;;;;;;0.00;0.00;;;;;;;8.67;74.82;101341.78;7361276;19;20032;-57
2022/11/29 07:18:09;;;;;;;0.00;0.00;;;;;;;8.68;75.12;101338.31;7362398;19;20007;-57
2022/11/29 07:20:50;;;;;;;0.00;0.00;;;;;;;8.67;74.84;101346.13;7261052;19;2004445;-58
2022/11/29 07:23:28;;;;;;;0.10;0.10;;;;;;;8.71;74.61;101358.25;7361604;19;20014;-58
2022/11/29 07:25:53;;;;;;;;;;;;;;;8.73;74.16;101362.59;7367391;19;20014;-58
2022/11/29 07:28:40;;;;;;;0.03;0.03;;;;;;;8.73;74.38;101352.19;7364667;19;22070;-57
2022/11/29 07:31:18;;;;;;;0.05;0.05;;;;;;;8.71;74.65;101353.03;7259480;19;2004663;-58
2022/11/29 07:34:22;;;;;;;0.00;0.00;;;;;;;8.67;74.75;101339.19;7360731;19;20074;-59
2022/11/29 07:36:47;;;;;;;0.10;0.10;;;;;;;8.68;74.79;101338.31;7257338;19;2004463;-58
2022/11/29 07:39:16;;;;;;;0.00;0.00;;;;;;;8.70;75.25;101341.75;7362663;19;20529;-57
2022/11/29 07:42:03;;;;;;;0.05;0.05;;;;;;;8.72;74.67;101339.19;7360305;19;20777;-58
2022/11/29 07:44:38;;;;;;;0.00;0.00;;;;;;;8.69;75.21;101342.66;7364418;19;20014;-58
2022/11/29 07:47:04;;;;;;;0.03;0.03;;;;;;;8.64;74.92;101335.72;7352214;19;20869;-58
2022/11/29 07:49:29;;;;;;;0.00;0.00;;;;;;;8.69;74.93;101350.47;7364242;19;20017;-58
2022/11/29 07:51:55;;;;;;;0.00;0.00;;;;;;;8.58;74.86;101334.88;7357965;19;20431;-58
2022/11/29 07:54:21;;;;;;;0.00;0.00;;;;;;;8.70;74.74;101354.78;7364348;19;20014;-57
2022/11/29 07:56:46;;;;;;;0.00;0.00;;;;;;;8.64;74.87;101346.16;7361163;19;20029;-58
2022/11/29 07:59:13;;;;;;;0.03;0.03;;;;;;;8.74;75.27;101358.25;7360002;19;20011;-58
2022/11/29 08:01:39;;;;;;;0.00;0.00;;;;;;;8.75;75.03;101365.19;7362554;19;20046;-58
2022/11/29 08:04:05;;;;;;;0.00;0.00;;;;;;;8.66;74.80;101353.06;7348662;19;20002;-57
2022/11/29 08:06:30;;;;;;;0.00;0.00;;;;;;;8.77;74.92;101371.28;7361016;19;20006;-58
2022/11/29 08:08:57;;;;;;;0.00;0.00;;;;;;;8.75;75.04;101375.59;7364920;19;20017;-57
2022/11/29 08:11:22;;;;;;;0.00;0.00;;;;;;;8.78;74.96;101381.66;7364106;19;20006;-58
2022/11/29 08:13:48;;;;;;;0.03;0.03;;;;;;;8.81;74.80;101385.97;7365595;19;20017;-58
2022/11/29 08:16:17;;;;;;;0.00;0.00;;;;;;;8.82;75.10;101383.38;7357930;19;20106;-58
2022/11/29 08:18:43;;;;;;;0.00;0.00;;;;;;;8.52;74.65;101342.72;7360833;19;20018;-58
2022/11/29 08:21:08;;;;;;;0.10;0.10;;;;;;;8.82;74.92;101385.13;7364998;19;20040;-58
2022/11/29 08:23:34;;;;;;;0.00;0.00;;;;;;;8.84;75.09;101391.19;7362275;19;20014;-58
2022/11/29 08:26:01;;;;;;;0.10;0.10;;;;;;;8.85;74.97;101385.09;7363133;19;20018;-57
2022/11/29 08:28:26;;;;;;;0.00;0.00;;;;;;;8.87;75.13;101379.88;7361278;19;20777;-57
2022/11/29 08:31:00;;;;;;;0.05;0.05;;;;;;;8.77;74.98;101353.03;7364457;19;20014;-57
2022/11/29 08:33:25;;;;;;;0.10;0.10;;;;;;;8.90;74.93;101379.88;7363882;19;20038;-57
2022/11/29 08:35:51;;;;;;;0.10;0.10;;;;;;;8.91;74.82;101385.06;7362467;19;20014;-58
2022/11/29 08:38:16;;;;;;;0.08;0.08;;;;;;;8.91;75.23;101377.25;7356921;19;20043;-58
2022/11/29 08:40:41;;;;;;;0.00;0.00;;;;;;;8.94;74.93;101372.03;7362269;19;20540;-59
2022/11/29 08:43:07;;;;;;;0.05;0.05;;;;;;;8.96;74.85;101375.47;7362931;19;20010;-56
2022/11/29 08:45:32;;;;;;;0.00;0.00;;;;;;;8.98;75.02;101373.75;7364572;19;20087;-58
2022/11/29 08:47:58;;;;;;;0.10;0.10;;;;;;;8.99;74.70;101359.84;7362261;19;20486;-58
2022/11/29 08:50:24;;;;;;;0.00;0.00;;;;;;;8.98;74.97;101346.84;7362993;19;20561;-58
2022/11/29 08:55:41;;;;;;;0.08;0.08;;;;;;;9.06;74.96;101371.09;7358176;19;20021;-58
2022/11/29 08:58:09;;;;;;;0.00;0.00;;;;;;;9.05;75.06;101372.84;7361709;19;20813;-58
2022/11/29 09:00:36;;;;;;;0.10;0.10;;;;;;;9.07;74.76;101383.25;7350965;19;20471;-58
2022/11/29 09:05:47;;;;;;;0.00;0.00;;;;;;;9.09;74.54;101382.38;7355039;19;20747;-58
2022/11/29 09:08:12;;;;;;;0.00;0.00;;;;;;;9.10;74.90;101384.09;7354084;19;20006;-58
2022/11/29 09:10:39;;;;;;;0.00;0.00;;;;;;;9.12;74.43;101386.69;7355573;19;20079;-57
2022/11/29 09:13:06;;;;;;;0.00;0.00;;;;;;;9.13;74.47;101369.34;7352996;19;20400;-58
2022/11/29 09:15:31;;;;;;;0.10;0.10;;;;;;;9.09;74.63;101379.78;7353241;19;20965;-58
2022/11/29 09:17:57;;;;;;;0.00;0.00;;;;;;;9.06;74.41;101381.50;7353166;19;20433;-58
2022/11/29 09:20:22;;;;;;;0.00;0.00;;;;;;;9.16;74.62;101392.75;7355052;19;20042;-58
2022/11/29 09:22:48;;;;;;;0.00;0.00;;;;;;;9.12;74.92;101388.44;7353692;19;20015;-58
2022/11/29 09:25:13;;;;;;;0.00;0.00;;;;;;;9.22;74.92;101395.31;7351157;19;20006;-57
2022/11/29 09:27:40;;;;;;;0.00;0.00;;;;;;;9.23;74.53;101397.94;7354218;19;20783;-58
2022/11/29 09:30:07;;;;;;;0.00;0.00;;;;;;;9.25;74.45;101408.34;7354020;19;20532;-58
2022/11/29 09:32:34;;;;;;;0.10;0.10;;;;;;;9.29;74.83;101415.28;7352867;19;20014;-57
2022/11/29 09:34:59;;;;;;;0.00;0.00;;;;;;;9.30;74.79;101417.84;7351663;19;20611;-58
2022/11/29 09:37:25;;;;;;;0.00;0.00;;;;;;;9.33;74.63;101403.97;7352799;19;20030;-57
2022/11/29 09:39:50;;;;;;;0.10;0.10;;;;;;;9.35;74.47;101408.28;7352854;19;21051;-56
2022/11/29 09:42:45;;;;;;;0.00;0.00;;;;;;;9.39;74.70;101401.31;7352883;19;20017;-58
2022/11/29 09:45:18;;;;;;;0.10;0.10;;;;;;;9.44;74.20;101399.53;7248491;19;2004675;-57
2022/11/29 09:47:52;;;;;;;0.05;0.05;;;;;;;9.48;74.52;101397.75;7352552;19;20101;-58
2022/11/29 09:50:34;;;;;;;0.00;0.00;;;;;;;9.52;74.49;101395.13;7352859;19;20620;-57
2022/11/29 09:53:30;;;;;;;0.00;0.00;;;;;;;9.55;74.22;101397.72;7352993;19;20014;-56
2022/11/29 09:56:12;;;;;;;0.00;0.00;;;;;;;9.39;74.33;101362.22;7251276;19;2004472;-57
2022/11/29 09:59:04;;;;;;;0.00;0.00;;;;;;;9.62;74.42;101399.38;7350945;19;20018;-59
2022/11/29 10:01:47;;;;;;;0.10;0.10;;;;;;;9.67;74.04;101401.97;7250475;19;2004660;-58
2022/11/29 10:04:24;;;;;;;0.00;0.00;;;;;;;9.70;74.18;101399.34;7351836;19;20458;-58
2022/11/29 10:07:02;;;;;;;0.05;0.05;;;;;;;9.74;74.17;101402.78;7351462;19;20019;-56
2022/11/29 10:09:43;;;;;;;;;;;;;;;9.81;73.89;101402.72;7349849;19;20631;-58
2022/11/29 10:12:20;;;;;;;0.00;0.00;;;;;;;9.84;74.12;101401.84;7349765;19;20330;-58
2022/11/29 10:14:52;;;;;;;0.00;0.00;;;;;;;9.79;74.15;101390.59;7348576;19;20018;-58
2022/11/29 10:17:31;;;;;;;0.00;0.00;;;;;;;9.91;73.63;101406.13;7346266;19;20637;-57
2022/11/29 10:20:17;;;;;;;0.00;0.00;;;;;;;9.96;74.06;101398.25;7348847;19;20756;-58
2022/11/29 10:22:53;;;;;;;0.10;0.10;;;;;;;9.97;73.86;101400.84;7352050;19;20089;-58
2022/11/29 10:25:29;;;;;;;0.05;0.05;;;;;;;10.02;74.16;101404.28;7350951;19;20006;-58
2022/11/29 10:27:55;;;;;;;0.00;0.00;;;;;;;9.69;73.66;101345.47;7352604;19;20125;-58
2022/11/29 10:30:21;;;;;;;0.00;0.00;;;;;;;9.94;73.72;101386.97;7349880;19;20029;-57
2022/11/29 10:32:53;;;;;;;0.10;0.10;;;;;;;10.10;74.10;101397.25;7352581;19;20099;-57
2022/11/29 10:35:20;;;;;;;0.00;0.00;;;;;;;10.10;74.14;101402.47;7351062;19;20014;-58
2022/11/29 10:37:46;;;;;;;0.03;0.03;;;;;;;10.14;73.96;101404.19;7349604;19;20037;-57
2022/11/29 10:40:23;;;;;;;0.10;0.10;;;;;;;10.21;73.65;101398.88;7352648;19;20007;-58
2022/11/29 10:42:48;;;;;;;;;;;;;;;10.27;73.72;101394.50;7352935;19;20015;-57
2022/11/29 10:45:26;;;;;;;0.00;0.00;;;;;;;10.29;73.66;101402.31;7350022;19;21044;-58
2022/11/29 10:47:54;;;;;;;0.10;0.10;;;;;;;10.27;73.85;101404.06;7350127;19;20901;-59
2022/11/29 10:50:23;;;;;;;0.10;0.10;;;;;;;10.31;73.79;101405.78;7348947;19;20033;-59
2022/11/29 10:52:49;;;;;;;0.10;0.10;;;;;;;10.21;73.65;101388.44;7350885;19;20021;-58
2022/11/29 10:55:16;;;;;;;0.03;0.03;;;;;;;10.34;73.54;101405.72;7350097;19;20006;-56
2022/11/29 10:58:15;;;;;;;0.00;0.00;;;;;;;10.38;73.44;101403.06;7348260;19;20125;-57
2022/11/29 11:01:06;;;;;;;0.10;0.10;;;;;;;10.41;73.62;101407.41;7248144;19;2004957;-57
2022/11/29 11:03:41;;;;;;;0.00;0.00;;;;;;;10.39;73.50;101388.28;7348691;19;20102;-58
2022/11/29 11:06:40;;;;;;;0.00;0.00;;;;;;;10.43;73.44;101395.19;7348535;19;20555;-57
2022/11/29 11:09:30;;;;;;;0.00;0.00;;;;;;;10.44;73.52;101402.16;7247961;19;2004093;-58
2022/11/29 11:11:59;;;;;;;0.00;0.00;;;;;;;10.42;73.42;101393.47;7349117;19;20006;-56
2022/11/29 11:14:30;;;;;;;0.00;0.00;;;;;;;10.44;73.50;101385.59;7346494;19;20022;-58
2022/11/29 11:17:25;;;;;;;0.00;0.00;;;;;;;10.45;73.33;101383.00;7349002;19;20021;-57
2022/11/29 11:20:19;;;;;;;0.00;0.00;;;;;;;10.48;73.61;101382.09;7248330;19;2004408;-57
2022/11/29 11:22:56;;;;;;;0.00;0.00;;;;;;;10.48;73.60;101369.91;7247200;19;2004493;-58
2022/11/29 11:25:29;;;;;;;0.10;0.10;;;;;;;10.50;73.56;101369.91;7349503;19;20040;-58
2022/11/29 11:27:56;;;;;;;0.10;0.10;;;;;;;10.39;73.66;101349.09;7348428;19;20013;-57
2022/11/29 11:30:26;;;;;;;0.00;0.00;;;;;;;10.53;73.69;101365.47;7351095;19;20779;-57
2022/11/29 11:33:15;;;;;;;0.10;0.10;;;;;;;10.59;73.35;101360.22;7349969;19;20102;-56
2022/11/29 11:35:41;;;;;;;0.00;0.00;;;;;;;10.58;73.52;101353.22;7349447;19;20355;-59
2022/11/29 11:38:17;;;;;;;0.00;0.00;;;;;;;10.68;73.66;101358.34;7350094;19;20014;-58
2022/11/29 11:40:42;;;;;;;0.00;0.00;;;;;;;10.59;73.41;101339.31;7349391;19;20364;-57
2022/11/29 11:43:19;;;;;;;0.00;0.00;;;;;;;10.77;73.38;101347.78;7354218;19;20010;-58
2022/11/29 11:45:52;;;;;;;0.10;0.10;;;;;;;10.85;73.12;101340.72;7356323;19;20010;-57
2022/11/29 11:48:18;;;;;;;0.00;0.00;;;;;;;10.89;73.42;101337.16;7355169;19;20731;-57
2022/11/29 11:50:51;;;;;;;0.00;0.00;;;;;;;11.01;73.22;101341.38;7353699;19;20014;-54
2022/11/29 11:53:27;;;;;;;0.10;0.10;;;;;;;11.12;73.44;101335.09;7353687;19;20010;-57
2022/11/29 11:56:03;;;;;;;0.08;0.08;;;;;;;11.21;72.78;101343.69;7356349;19;20733;-58
2022/11/29 11:58:35;;;;;;;0.00;0.00;;;;;;;11.30;73.13;101327.84;7353338;19;20018;-56
2022/11/29 12:01:24;;;;;;;0.00;0.00;;;;;;;11.29;72.84;101299.97;7356015;19;20022;-58
2022/11/29 12:04:09;;;;;;;0.10;0.10;;;;;;;11.57;72.55;101322.19;7354303;19;20046;-58
2022/11/29 12:07:01;;;;;;;0.10;0.10;;;;;;;11.72;72.63;101320.19;7355413;19;20015;-58
2022/11/29 12:09:40;;;;;;;0.00;0.00;;;;;;;11.87;72.17;101317.34;7253198;19;2004504;-58
2022/11/29 12:12:24;;;;;;;0.05;0.05;;;;;;;11.99;71.87;101314.50;7355196;19;20017;-58
2022/11/29 12:14:52;;;;;;;0.00;0.00;;;;;;;12.20;71.64;101314.06;7354276;19;20018;-58
2022/11/29 12:17:27;;;;;;;0.00;0.00;;;;;;;12.36;71.90;101298.91;7354081;19;20824;-58